createdAt,value
2019-03-26T00:13:42.681Z,7.40
2019-03-26T00:20:21.805Z,7.33
2019-03-26T00:23:12.709Z,8.35
2019-03-26T00:25:55.058Z,10.23
2019-03-26T00:32:16.793Z,8.80
2019-03-26T00:35:25.999Z,8.30
2019-03-26T00:38:36.978Z,7.87
2019-03-26T00:42:08.104Z,11.30
2019-03-26T00:55:37.085Z,7.05
2019-03-26T00:58:32.291Z,8.88
2019-03-26T01:01:28.597Z,8.35
2019-03-26T01:04:33.874Z,8.83
2019-03-26T01:07:24.191Z,8.63
2019-03-26T01:13:20.989Z,9.43
2019-03-26T01:16:01.743Z,8.25
2019-03-26T01:18:51.681Z,8.25
2019-03-26T01:21:45.302Z,9.15
2019-03-26T01:27:59.429Z,8.38
2019-03-26T01:30:43.232Z,10.45
2019-03-26T01:40:50.062Z,10.45
2019-03-26T01:43:29.481Z,10.82
2019-03-26T01:46:55.122Z,11.35
2019-03-26T01:50:09.092Z,12.15
2019-03-26T01:52:47.468Z,10.28
2019-03-26T01:55:54.484Z,11.57
2019-03-26T01:58:30.130Z,10.75
2019-03-26T02:01:18.795Z,14.13
2019-03-26T02:04:24.752Z,13.85
2019-03-26T02:07:11.335Z,11.73
2019-03-26T02:09:51.768Z,11.20
2019-03-26T02:12:48.610Z,10.55
2019-03-26T02:15:49.142Z,12.40
2019-03-26T02:18:42.367Z,11.55
2019-03-26T02:21:49.984Z,11.97
2019-03-26T02:24:07.389Z,11.25
2019-03-26T02:30:27.571Z,10.28
2019-03-26T02:33:29.650Z,12.28
2019-03-26T02:36:22.429Z,10.45
2019-03-26T02:39:41.602Z,10.63
2019-03-26T02:42:49.625Z,12.28
2019-03-26T02:45:58.597Z,14.30
2019-03-26T02:51:59.973Z,11.65
2019-03-26T02:55:08.222Z,10.75
2019-03-26T02:57:46.699Z,12.23
2019-03-26T03:00:44.451Z,13.03
2019-03-26T03:03:51.535Z,11.95
2019-03-26T03:07:04.585Z,9.28
2019-03-26T03:09:48.359Z,11.90
2019-03-26T03:12:40.026Z,12.20
2019-03-26T03:16:14.018Z,12.88
2019-03-26T03:22:22.770Z,13.28
2019-03-26T03:25:01.303Z,11.90
2019-03-26T03:28:31.767Z,11.08
2019-03-26T03:38:10.821Z,13.32
2019-03-26T03:41:38.720Z,10.55
2019-03-26T03:44:50.346Z,10.30
2019-03-26T03:47:42.368Z,9.55
2019-03-26T03:50:30.287Z,10.65
2019-03-26T03:53:30.698Z,9.65
2019-03-26T03:56:06.273Z,9.25
2019-03-26T03:58:40.799Z,8.68
2019-03-26T04:01:31.800Z,9.60
2019-03-26T04:04:34.724Z,11.15
2019-03-26T04:07:46.408Z,10.63
2019-03-26T04:10:53.775Z,12.65
2019-03-26T04:13:58.543Z,8.80
2019-03-26T04:16:53.939Z,9.30
2019-03-26T04:20:22.732Z,13.25
2019-03-26T04:54:33.094Z,8.78
2019-03-26T06:10:43.334Z,8.30
2019-03-26T06:25:02.178Z,10.18
2019-03-26T06:52:38.274Z,8.88
2019-03-26T06:55:11.537Z,10.03
2019-03-26T06:57:53.200Z,10.95
2019-03-26T07:00:34.396Z,12.45
2019-03-26T07:03:07.383Z,9.88
2019-03-26T07:05:39.206Z,10.18
2019-03-26T07:08:14.228Z,10.15
2019-03-26T07:10:47.660Z,12.73
2019-03-26T07:15:58.494Z,13.50
2019-03-26T07:18:34.077Z,12.70
2019-03-26T07:21:10.922Z,14.13
2019-03-26T07:23:46.974Z,12.13
2019-03-26T07:26:24.586Z,15.55
2019-03-26T07:28:58.098Z,14.35
2019-03-26T07:31:29.816Z,16.07
2019-03-26T07:34:10.135Z,14.63
2019-03-26T07:36:41.897Z,12.68
2019-03-26T07:39:13.648Z,13.68
2019-03-26T07:41:49.622Z,13.43
2019-03-26T07:44:23.184Z,14.65
2019-03-26T07:46:56.598Z,11.65
2019-03-26T07:51:59.964Z,10.58
2019-03-26T07:54:32.664Z,11.73
2019-03-26T07:57:04.804Z,11.08
2019-03-26T07:59:38.309Z,9.98
2019-03-26T08:02:12.997Z,12.60
2019-03-26T08:04:45.040Z,14.63
2019-03-26T08:07:35.331Z,10.68
2019-03-26T08:10:14.752Z,12.03
2019-03-26T08:12:47.949Z,8.68
2019-03-26T08:15:21.163Z,8.18
2019-03-26T08:17:53.191Z,9.75
2019-03-26T08:20:25.916Z,8.85
2019-03-26T08:23:02.592Z,11.15
2019-03-26T08:25:34.519Z,9.30
2019-03-26T08:28:06.124Z,12.23
2019-03-26T08:30:38.494Z,10.50
2019-03-26T08:33:09.979Z,8.88
2019-03-26T08:35:41.847Z,8.83
2019-03-26T08:38:14.814Z,8.63
2019-03-26T08:40:46.539Z,8.40
2019-03-26T08:44:22.095Z,8.78
2019-03-26T08:46:53.736Z,13.65
2019-03-26T08:49:30.785Z,9.85
2019-03-26T08:52:00.415Z,11.43
2019-03-26T08:54:32.091Z,10.28
2019-03-26T08:57:03.953Z,10.00
2019-03-26T08:59:35.177Z,7.12
2019-03-26T09:02:07.910Z,8.15
2019-03-26T09:04:39.242Z,7.53
2019-03-26T09:07:11.269Z,9.38
2019-03-26T09:09:44.202Z,10.15
2019-03-26T09:12:15.412Z,10.43
2019-03-26T09:14:56.103Z,8.65
2019-03-26T09:17:29.080Z,11.10
2019-03-26T09:20:00.371Z,8.65
2019-03-26T09:22:35.680Z,11.43
2019-03-26T09:25:08.863Z,8.48
2019-03-26T09:27:40.220Z,8.95
2019-03-26T09:30:35.042Z,11.20
2019-03-26T09:33:04.067Z,8.80
2019-03-26T09:35:35.662Z,6.87
2019-03-26T09:38:56.986Z,8.28
2019-03-26T09:41:33.915Z,15.85
2019-03-26T09:44:07.783Z,7.58
2019-03-26T09:46:40.608Z,8.95
2019-03-26T09:49:12.381Z,9.03
2019-03-26T09:51:45.445Z,8.33
2019-03-26T09:54:17.080Z,7.17
2019-03-26T09:56:48.731Z,9.48
2019-03-26T09:59:20.655Z,14.53
2019-03-26T10:01:58.477Z,15.65
2019-03-26T10:04:30.025Z,15.08
2019-03-26T10:07:01.682Z,11.03
2019-03-26T10:09:35.632Z,10.90
2019-03-26T10:12:10.651Z,11.28
2019-03-26T10:14:42.819Z,7.80
2019-03-26T10:17:17.647Z,6.97
2019-03-26T10:19:51.014Z,6.15
2019-03-26T10:25:06.441Z,6.58
2019-03-26T10:27:38.322Z,9.13
2019-03-26T10:30:11.700Z,5.55
2019-03-26T10:35:23.754Z,5.92
2019-03-26T10:37:56.109Z,9.15
2019-03-26T10:40:52.444Z,6.25
2019-03-26T10:43:29.688Z,8.03
2019-03-26T10:46:04.802Z,7.58
2019-03-26T10:48:37.717Z,7.28
2019-03-26T10:51:16.450Z,8.23
2019-03-26T10:53:51.787Z,8.38
2019-03-26T10:56:23.594Z,5.95
2019-03-26T10:59:04.424Z,6.30
2019-03-26T11:01:37.547Z,7.05
2019-03-26T11:11:43.548Z,7.70
2019-03-26T11:14:16.977Z,6.65
2019-03-26T11:16:48.864Z,8.48
2019-03-26T11:19:23.657Z,6.22
2019-03-26T11:21:55.864Z,7.05
2019-03-26T11:24:28.378Z,7.70
2019-03-26T11:27:08.101Z,6.28
2019-03-26T11:29:42.131Z,6.15
2019-03-26T11:33:19.588Z,5.83
2019-03-26T11:36:10.149Z,4.97
2019-03-26T11:38:45.118Z,6.58
2019-03-26T11:41:23.436Z,5.47
2019-03-26T11:44:08.025Z,6.70
2019-03-26T11:46:44.833Z,7.28
2019-03-26T11:49:27.538Z,7.40
2019-03-26T11:52:07.704Z,5.80
2019-03-26T11:54:39.217Z,9.83
2019-03-26T11:57:19.562Z,6.08
2019-03-26T11:59:56.248Z,6.65
2019-03-26T12:02:27.830Z,6.87
2019-03-26T12:05:08.077Z,6.12
2019-03-26T12:07:43.255Z,7.37
2019-03-26T12:10:18.103Z,8.43
2019-03-26T12:12:50.454Z,20.65
2019-03-26T12:15:23.910Z,10.80
2019-03-26T12:18:06.032Z,7.53
2019-03-26T12:20:46.345Z,5.25
2019-03-26T12:23:28.940Z,9.05
2019-03-26T12:26:04.480Z,6.47
2019-03-26T12:28:52.679Z,6.65
2019-03-26T12:31:28.936Z,8.85
2019-03-26T12:34:01.208Z,6.05
2019-03-26T12:36:39.787Z,7.87
2019-03-26T12:39:10.499Z,5.80
2019-03-26T12:41:44.475Z,5.05
2019-03-26T12:44:26.200Z,5.87
2019-03-26T12:47:02.339Z,5.80
2019-03-26T12:49:36.688Z,6.58
2019-03-26T12:52:13.097Z,5.55
2019-03-26T12:54:50.248Z,6.20
2019-03-26T12:58:31.003Z,6.17
2019-03-26T13:01:00.475Z,8.58
2019-03-26T13:04:23.343Z,8.20
2019-03-26T13:07:04.616Z,7.62
2019-03-26T13:09:44.159Z,8.43
2019-03-26T13:22:02.590Z,4.33
2019-03-26T13:51:37.184Z,14.33
2019-03-26T13:53:51.875Z,5.97
2019-03-26T13:56:53.478Z,6.95
2019-03-26T14:03:10.773Z,9.13
2019-03-26T14:06:53.624Z,13.38
2019-03-26T14:16:45.119Z,4.00
2019-03-26T14:19:16.039Z,6.62
2019-03-26T14:21:47.640Z,3.90
2019-03-26T14:24:18.962Z,8.10
2019-03-26T14:26:49.813Z,7.58
2019-03-26T14:33:45.433Z,4.55
2019-03-26T14:36:38.991Z,5.45
2019-03-26T14:43:03.910Z,5.25
2019-03-26T14:50:12.916Z,5.37
2019-03-26T14:53:19.055Z,5.45
2019-03-26T14:56:31.785Z,6.12
2019-03-26T14:59:38.188Z,8.60
2019-03-26T15:02:19.082Z,4.78
2019-03-26T15:05:01.537Z,5.83
2019-03-26T21:29:50.338Z,8.68
2019-03-26T21:32:53.844Z,7.70
2019-03-26T21:35:35.751Z,8.68
2019-03-26T21:38:43.918Z,7.10
2019-03-26T21:42:19.214Z,8.35
2019-03-26T21:45:25.763Z,12.25
2019-03-26T21:50:35.369Z,10.75
2019-03-26T21:53:10.048Z,10.15
2019-03-26T21:56:08.631Z,10.88
2019-03-26T21:58:26.923Z,11.00
2019-03-26T22:01:02.854Z,13.88
2019-03-26T22:03:36.679Z,11.45
2019-03-26T22:06:12.699Z,11.80
2019-03-26T22:08:48.604Z,9.80
2019-03-26T22:11:20.622Z,9.80
2019-03-26T22:13:57.499Z,12.98
2019-03-26T22:16:42.087Z,23.62
2019-03-26T22:19:27.759Z,12.82
2019-03-26T22:22:00.986Z,12.45
2019-03-26T22:24:33.347Z,9.18
2019-03-26T22:27:12.316Z,10.82
2019-03-26T22:29:45.758Z,17.32
2019-03-26T22:32:19.792Z,13.90
2019-03-26T22:34:53.374Z,15.70
2019-03-26T22:37:32.484Z,12.60
2019-03-26T22:40:16.215Z,11.05
2019-03-26T22:42:53.589Z,11.73
2019-03-26T22:45:26.985Z,9.38
2019-03-26T22:51:33.377Z,9.75
2019-03-26T22:54:13.849Z,10.40
2019-03-26T22:56:50.940Z,12.45
2019-03-26T22:59:25.587Z,11.93
2019-03-26T23:02:04.102Z,9.05
2019-03-26T23:04:39.993Z,9.70
2019-03-26T23:07:12.562Z,13.50
2019-03-26T23:09:44.960Z,11.88
2019-03-26T23:12:16.986Z,13.70
2019-03-26T23:14:51.471Z,13.90
2019-03-26T23:17:23.454Z,12.47
2019-03-26T23:19:55.186Z,11.55
2019-03-26T23:22:33.341Z,12.68
2019-03-26T23:25:11.075Z,12.68
2019-03-26T23:27:42.470Z,14.38
2019-03-26T23:30:17.409Z,13.68
2019-03-26T23:32:56.575Z,16.23
2019-03-26T23:35:28.432Z,15.70
2019-03-26T23:38:00.223Z,14.07
2019-03-26T23:40:36.441Z,13.75
2019-03-26T23:43:19.746Z,14.65
2019-03-26T23:45:51.298Z,12.70
2019-03-26T23:48:22.714Z,16.55
2019-03-26T23:51:02.686Z,15.08
2019-03-26T23:53:34.168Z,16.97
2019-03-26T23:56:08.537Z,14.43
2019-03-26T23:58:39.587Z,14.28
